Time;durP1;ratioP1;P1;durP2;ratioP2;P2;SDS_P1;SDS_P2;PMS_P1;PMS_P2;Temp;Humidity;BMP_temperature;BMP_pressure;BME280_temperature;BME280_humidity;BME280_pressure;Samples;Min_cycle;Max_cycle;Signal;HPM_P1;HPM_P2
2024/03/23 00:01:49;;;;;;;4.40;3.70;;;13.20;1.00;;;;;;5098552;28;20442;-40
2024/03/23 00:04:16;;;;;;;4.47;4.07;;;13.20;1.00;;;;;;5098712;28;20430;-41
2024/03/23 00:06:42;;;;;;;3.70;3.40;;;13.20;1.00;;;;;;5099054;28;20437;-40
2024/03/23 00:09:09;;;;;;;4.57;3.80;;;13.10;1.00;;;;;;5098214;28;20470;-43
2024/03/23 00:11:36;;;;;;;5.03;4.03;;;13.10;1.00;;;;;;5097630;28;20462;-41
2024/03/23 00:14:03;;;;;;;4.30;3.90;;;13.10;1.00;;;;;;5099071;28;20426;-40
2024/03/23 00:16:30;;;;;;;4.83;3.97;;;13.10;1.00;;;;;;5099614;28;20422;-41
2024/03/23 00:18:57;;;;;;;5.53;4.47;;;13.10;1.00;;;;;;5100346;28;20433;-41
2024/03/23 00:21:24;;;;;;;5.03;4.20;;;13.00;1.00;;;;;;5100208;28;20838;-40
2024/03/23 00:23:50;;;;;;;7.73;4.27;;;13.00;1.00;;;;;;5100237;28;20425;-42
2024/03/23 00:26:17;;;;;;;7.20;4.93;;;13.00;1.00;;;;;;5099427;28;20751;-40
2024/03/23 00:28:44;;;;;;;5.10;4.50;;;13.00;1.00;;;;;;5095269;28;20426;-42
2024/03/23 00:31:10;;;;;;;5.40;3.90;;;12.90;1.00;;;;;;5098467;28;20470;-43
2024/03/23 00:33:38;;;;;;;5.03;4.60;;;12.90;1.00;;;;;;5098860;28;20422;-40
2024/03/23 00:36:04;;;;;;;4.77;4.37;;;12.80;1.00;;;;;;5099453;28;20418;-41
2024/03/23 00:38:31;;;;;;;5.07;4.57;;;12.90;1.00;;;;;;5098646;28;20419;-40
2024/03/23 00:41:00;;;;;;;5.37;4.40;;;12.90;1.00;;;;;;5098909;28;20874;-43
2024/03/23 00:43:27;;;;;;;5.07;4.57;;;12.80;1.00;;;;;;5098064;28;20735;-44
2024/03/23 00:45:53;;;;;;;6.17;4.63;;;12.80;1.00;;;;;;5099098;28;20442;-42
2024/03/23 00:48:20;;;;;;;5.67;4.60;;;12.80;1.00;;;;;;5099410;28;20430;-40
2024/03/23 00:50:47;;;;;;;5.60;4.90;;;12.80;1.00;;;;;;5099189;28;20472;-41
2024/03/23 00:53:14;;;;;;;4.27;3.47;;;12.80;1.00;;;;;;5098031;28;20512;-41
2024/03/23 00:55:40;;;;;;;4.77;4.27;;;12.80;1.00;;;;;;5099410;28;20423;-40
2024/03/23 00:58:06;;;;;;;4.37;3.97;;;12.80;1.00;;;;;;5099547;28;20431;-41
2024/03/23 01:00:32;;;;;;;5.33;4.83;;;12.80;1.00;;;;;;5098782;28;20817;-42
2024/03/23 01:02:57;;;;;;;4.00;3.60;;;12.80;1.00;;;;;;5098004;28;20180;-40
2024/03/23 01:05:23;;;;;;;5.00;4.50;;;12.70;1.00;;;;;;5098362;28;20184;-41
2024/03/23 01:07:48;;;;;;;4.57;4.10;;;12.70;1.00;;;;;;5097306;28;20204;-41
2024/03/23 01:10:14;;;;;;;3.97;3.50;;;12.70;1.00;;;;;;5098929;28;20343;-41
2024/03/23 01:12:40;;;;;;;4.20;3.73;;;12.70;1.00;;;;;;5097476;28;20220;-43
2024/03/23 01:15:06;;;;;;;4.40;4.00;;;12.70;1.00;;;;;;5097645;28;20164;-44
2024/03/23 01:17:31;;;;;;;4.93;3.80;;;12.70;1.00;;;;;;5099296;28;20263;-41
2024/03/23 01:19:57;;;;;;;4.13;3.73;;;12.70;1.00;;;;;;5098692;28;20188;-41
2024/03/23 01:22:23;;;;;;;4.07;3.50;;;12.70;1.00;;;;;;5099381;28;20445;-41
2024/03/23 01:24:48;;;;;;;3.57;3.27;;;12.70;1.00;;;;;;5100124;28;20185;-42
2024/03/23 01:27:14;;;;;;;3.73;3.33;;;12.70;1.00;;;;;;5097836;28;20186;-42
2024/03/23 01:29:40;;;;;;;3.53;3.23;;;12.70;1.00;;;;;;5098559;28;20172;-41
2024/03/23 01:32:06;;;;;;;3.50;3.20;;;12.70;1.00;;;;;;5081299;28;20254;-40
2024/03/23 01:34:32;;;;;;;3.73;3.30;;;12.70;1.00;;;;;;5099598;28;20177;-41
2024/03/23 01:36:58;;;;;;;3.20;2.90;;;12.70;1.00;;;;;;5098269;28;20415;-43
2024/03/23 01:39:24;;;;;;;3.80;3.50;;;12.60;1.00;;;;;;5099120;28;20230;-41
2024/03/23 01:41:49;;;;;;;3.83;3.53;;;12.70;1.00;;;;;;5099178;28;20509;-42
2024/03/23 01:44:16;;;;;;;4.70;4.27;;;12.60;1.00;;;;;;5098881;28;20251;-41
2024/03/23 01:46:42;;;;;;;3.97;3.57;;;12.60;1.00;;;;;;5098118;28;20188;-43
2024/03/23 01:49:08;;;;;;;4.97;4.47;;;12.60;1.00;;;;;;5098273;28;20434;-42
2024/03/23 01:51:34;;;;;;;5.13;4.63;;;12.60;1.00;;;;;;5098956;28;20466;-41
2024/03/23 01:54:03;;;;;;;4.60;4.00;;;12.50;1.00;;;;;;5098191;28;20703;-41
2024/03/23 01:56:35;;;;;;;5.00;4.50;;;12.50;1.00;;;;;;5081125;28;20445;-41
2024/03/23 01:59:02;;;;;;;4.80;4.20;;;12.50;1.00;;;;;;5099010;28;20785;-41
2024/03/23 02:01:27;;;;;;;5.20;4.70;;;12.50;6.40;;;;;;5098607;28;20835;-41
2024/03/23 02:03:53;;;;;;;5.20;4.70;;;12.40;16.00;;;;;;5097820;28;20434;-41
2024/03/23 02:06:19;;;;;;;6.80;4.40;;;12.40;29.30;;;;;;5099082;28;20184;-41
2024/03/23 02:08:44;;;;;;;5.50;4.30;;;12.40;99.90;;;;;;5098350;28;20176;-41
2024/03/23 02:11:10;;;;;;;3.77;3.47;;;12.40;99.90;;;;;;5097580;28;20231;-41
2024/03/23 02:13:36;;;;;;;4.20;3.67;;;12.40;99.90;;;;;;5099085;28;20528;-43
2024/03/23 02:16:02;;;;;;;4.10;3.60;;;12.40;99.90;;;;;;5098420;28;20237;-42
2024/03/23 02:18:27;;;;;;;4.20;3.43;;;12.40;99.90;;;;;;5097612;28;20177;-41
2024/03/23 02:20:53;;;;;;;4.00;3.60;;;12.40;99.90;;;;;;5097036;28;20410;-40
2024/03/23 02:23:19;;;;;;;4.10;3.70;;;12.40;99.90;;;;;;5097543;28;20165;-40
2024/03/23 02:25:44;;;;;;;4.80;3.80;;;12.40;99.90;;;;;;5097599;28;20597;-41
2024/03/23 02:28:10;;;;;;;4.27;3.87;;;12.40;99.90;;;;;;5096684;28;20180;-40
2024/03/23 02:30:37;;;;;;;3.90;3.50;;;12.40;99.90;;;;;;5097733;28;20441;-40
2024/03/23 02:33:03;;;;;;;4.10;3.20;;;12.40;99.90;;;;;;5097230;28;20406;-41
2024/03/23 02:35:30;;;;;;;3.70;3.40;;;12.50;99.90;;;;;;5096931;28;20430;-40
2024/03/23 02:37:56;;;;;;;5.83;3.90;;;12.50;99.90;;;;;;5096739;28;20426;-40
2024/03/23 02:40:23;;;;;;;4.23;3.77;;;12.50;1.00;;;;;;5097229;28;20824;-40
2024/03/23 02:42:49;;;;;;;6.00;4.00;;;12.50;1.00;;;;;;5095926;28;20497;-41
2024/03/23 02:45:14;;;;;;;3.93;3.63;;;12.50;1.00;;;;;;5097464;28;20524;-41
2024/03/23 02:47:40;;;;;;;4.53;3.60;;;12.50;1.00;;;;;;5096950;28;20172;-40
2024/03/23 02:50:07;;;;;;;4.53;3.23;;;12.50;1.00;;;;;;5095985;28;20279;-42
2024/03/23 02:52:32;;;;;;;4.60;3.50;;;12.50;1.00;;;;;;5100193;28;20216;-42
2024/03/23 02:54:58;;;;;;;4.00;3.60;;;12.50;1.00;;;;;;5100968;28;20426;-41
2024/03/23 02:57:24;;;;;;;6.90;4.07;;;12.50;1.00;;;;;;5100808;28;20210;-39
2024/03/23 02:59:49;;;;;;;4.30;3.97;;;12.40;1.00;;;;;;5100601;28;20183;-40
2024/03/23 03:02:16;;;;;;;4.87;3.40;;;12.40;1.00;;;;;;5101300;28;20804;-41
2024/03/23 03:04:42;;;;;;;3.53;3.20;;;12.40;1.00;;;;;;5100780;28;20188;-42
2024/03/23 03:07:07;;;;;;;4.23;3.83;;;12.40;1.00;;;;;;5101191;28;20472;-41
2024/03/23 03:09:35;;;;;;;5.20;3.90;;;12.40;1.00;;;;;;5100766;28;20489;-41
2024/03/23 03:12:03;;;;;;;4.53;3.40;;;12.40;1.00;;;;;;5101285;28;20207;-42
2024/03/23 03:14:29;;;;;;;4.47;3.40;;;12.40;1.00;;;;;;5099144;28;20410;-40
2024/03/23 03:16:55;;;;;;;7.87;3.73;;;12.40;1.00;;;;;;5097803;28;20442;-41
2024/03/23 03:19:21;;;;;;;5.27;3.37;;;12.40;1.00;;;;;;5099326;28;20489;-39
2024/03/23 03:21:47;;;;;;;4.27;3.60;;;12.40;1.00;;;;;;5099684;28;20184;-40
2024/03/23 03:24:13;;;;;;;3.90;3.50;;;12.40;1.00;;;;;;5100017;28;20202;-41
2024/03/23 03:26:39;;;;;;;7.90;3.67;;;12.40;1.00;;;;;;5098353;28;20497;-40
2024/03/23 03:29:04;;;;;;;3.37;3.07;;;12.30;1.00;;;;;;5099802;28;20192;-41
2024/03/23 03:31:30;;;;;;;4.00;3.30;;;12.30;1.00;;;;;;5101097;28;20211;-41
2024/03/23 03:33:55;;;;;;;4.30;3.90;;;12.30;1.00;;;;;;5101028;28;20192;-40
2024/03/23 03:36:21;;;;;;;6.07;3.70;;;12.30;1.00;;;;;;5101022;28;20188;-41
2024/03/23 03:38:47;;;;;;;4.17;3.30;;;12.30;64.10;;;;;;5100174;28;20543;-42
2024/03/23 03:41:12;;;;;;;6.03;3.23;;;12.30;99.90;;;;;;5099760;28;20570;-41
2024/03/23 03:47:00;;;;;;;5.90;3.83;;;12.30;99.90;;;;;;5100705;28;20186;-40
2024/03/23 03:49:26;;;;;;;3.60;3.00;;;12.20;99.90;;;;;;5100674;28;20438;-42
2024/03/23 03:51:51;;;;;;;3.83;3.53;;;12.20;99.90;;;;;;5098808;28;20509;-40
2024/03/23 03:54:17;;;;;;;5.07;3.70;;;12.20;99.90;;;;;;5099184;28;20451;-42
2024/03/23 03:56:42;;;;;;;4.27;3.37;;;12.20;99.90;;;;;;5100581;28;20271;-40
2024/03/23 03:59:08;;;;;;;5.63;3.40;;;12.20;99.90;;;;;;5098317;28;20435;-40
2024/03/23 04:01:34;;;;;;;4.20;3.43;;;12.20;99.90;;;;;;5099237;28;20553;-42
2024/03/23 04:03:59;;;;;;;5.30;3.97;;;12.20;99.90;;;;;;5098825;28;20180;-41
2024/03/23 04:06:25;;;;;;;3.77;3.47;;;12.20;99.90;;;;;;5099534;28;20176;-41
2024/03/23 04:08:50;;;;;;;4.30;3.90;;;12.20;99.90;;;;;;5098945;28;20196;-42
2024/03/23 04:11:16;;;;;;;3.73;3.30;;;12.20;1.00;;;;;;5099695;28;20261;-39
2024/03/23 04:13:42;;;;;;;4.93;3.50;;;12.30;1.00;;;;;;5099637;28;20428;-40
2024/03/23 04:16:09;;;;;;;4.10;3.70;;;12.20;1.00;;;;;;5099633;28;20245;-43
2024/03/23 04:18:35;;;;;;;5.37;3.27;;;12.20;1.00;;;;;;5098709;28;20263;-42
2024/03/23 04:21:00;;;;;;;3.60;3.30;;;12.20;1.00;;;;;;5099797;28;20856;-42
2024/03/23 04:23:26;;;;;;;4.60;3.83;;;12.20;1.00;;;;;;5098381;28;20492;-42
2024/03/23 04:25:53;;;;;;;5.30;3.80;;;12.20;1.00;;;;;;5099853;28;20196;-42
2024/03/23 04:28:19;;;;;;;4.03;3.63;;;12.20;99.90;;;;;;5082274;28;20215;-40
2024/03/23 04:30:44;;;;;;;4.13;3.40;;;12.20;99.90;;;;;;5099820;28;20449;-42
2024/03/23 04:33:10;;;;;;;4.10;3.70;;;12.20;99.90;;;;;;5098914;28;20184;-43
2024/03/23 04:35:36;;;;;;;4.83;3.50;;;12.20;99.90;;;;;;5099895;28;20547;-41
2024/03/23 04:38:02;;;;;;;4.40;3.97;;;12.20;1.00;;;;;;5098292;28;20204;-42
2024/03/23 04:40:27;;;;;;;4.20;3.77;;;12.20;1.00;;;;;;5099082;28;20484;-40
2024/03/23 04:42:53;;;;;;;3.57;3.03;;;12.20;1.00;;;;;;5099026;28;20229;-42
2024/03/23 04:45:18;;;;;;;4.00;3.60;;;12.20;1.00;;;;;;5098972;28;20176;-41
2024/03/23 04:47:44;;;;;;;3.80;3.47;;;12.20;99.90;;;;;;5099626;28;20279;-43
2024/03/23 04:50:12;;;;;;;4.10;3.37;;;12.20;99.90;;;;;;5098112;28;20180;-42
2024/03/23 04:52:38;;;;;;;3.87;3.57;;;12.20;99.90;;;;;;5096056;28;20369;-45
2024/03/23 04:55:04;;;;;;;3.47;3.17;;;12.20;1.00;;;;;;5097549;28;20472;-42
2024/03/23 04:57:30;;;;;;;4.00;3.67;;;12.20;1.00;;;;;;5097894;28;20491;-42
2024/03/23 04:59:56;;;;;;;4.87;4.17;;;12.20;58.20;;;;;;5098884;28;20534;-42
2024/03/23 05:02:21;;;;;;;5.63;4.10;;;12.20;43.30;;;;;;5098588;28;20639;-41
2024/03/23 05:04:47;;;;;;;4.10;3.43;;;12.20;99.90;;;;;;5098826;28;20438;-44
2024/03/23 05:07:13;;;;;;;4.83;4.43;;;12.20;1.00;;;;;;5099342;28;20501;-43
2024/03/23 05:09:39;;;;;;;4.10;3.70;;;12.30;99.90;;;;;;5099522;28;20330;-43
2024/03/23 05:12:05;;;;;;;3.80;3.50;;;12.30;1.00;;;;;;5098105;28;20455;-42
2024/03/23 05:14:30;;;;;;;4.27;3.87;;;12.20;1.00;;;;;;5098691;28;20426;-42
2024/03/23 05:16:56;;;;;;;4.27;3.97;;;12.30;99.90;;;;;;5098974;28;20427;-44
2024/03/23 05:19:22;;;;;;;4.63;4.20;;;12.30;99.90;;;;;;5099086;28;20535;-42
2024/03/23 05:21:47;;;;;;;5.00;4.60;;;12.30;99.90;;;;;;5097979;28;20180;-43
2024/03/23 05:24:13;;;;;;;6.20;5.60;;;12.30;1.00;;;;;;5098489;28;20414;-43
2024/03/23 05:26:39;;;;;;;7.53;4.97;;;12.30;1.00;;;;;;5096989;28;20196;-42
2024/03/23 05:29:06;;;;;;;7.50;6.80;;;12.30;1.00;;;;;;5097308;28;20188;-42
2024/03/23 05:31:32;;;;;;;7.30;6.60;;;12.20;99.90;;;;;;5097494;28;20512;-41
2024/03/23 05:33:58;;;;;;;8.80;8.00;;;12.20;99.90;;;;;;5097182;28;20415;-43
2024/03/23 05:36:26;;;;;;;8.70;7.90;;;12.20;99.90;;;;;;5096701;28;20217;-42
2024/03/23 05:38:52;;;;;;;9.10;8.30;;;12.20;99.90;;;;;;5096305;28;20310;-44
2024/03/23 05:41:17;;;;;;;9.17;8.27;;;12.10;99.90;;;;;;5097791;28;20788;-44
2024/03/23 05:43:43;;;;;;;9.27;8.37;;;12.10;99.90;;;;;;5097170;28;20271;-42
2024/03/23 05:46:09;;;;;;;9.50;8.60;;;12.10;99.90;;;;;;5097554;28;20211;-43
2024/03/23 05:48:35;;;;;;;10.90;9.77;;;12.10;99.90;;;;;;5097429;28;20453;-42
2024/03/23 05:51:00;;;;;;;9.07;8.27;;;12.00;99.90;;;;;;5096729;28;20593;-42
2024/03/23 05:53:28;;;;;;;8.90;8.07;;;12.00;99.90;;;;;;5096714;28;20516;-45
2024/03/23 05:56:01;;;;;;;9.50;7.20;;;12.00;99.90;;;;;;5096559;28;20209;-43
2024/03/23 05:58:27;;;;;;;8.57;7.77;;;11.90;99.90;;;;;;5096159;28;20788;-42
2024/03/23 06:00:58;;;;;;;8.33;7.10;;;12.00;99.90;;;;;;5095898;28;20512;-44
2024/03/23 06:03:24;;;;;;;9.73;7.57;;;11.90;99.90;;;;;;5096798;28;20508;-42
2024/03/23 06:05:51;;;;;;;9.40;7.53;;;11.90;99.90;;;;;;5098309;28;20442;-42
2024/03/23 06:08:16;;;;;;;7.47;6.67;;;11.90;99.90;;;;;;5095716;28;20437;-43
2024/03/23 06:10:42;;;;;;;6.50;5.90;;;11.90;99.90;;;;;;5095488;28;20477;-43
2024/03/23 06:13:08;;;;;;;7.23;5.87;;;11.90;50.70;;;;;;5095150;28;20184;-42
2024/03/23 06:15:37;;;;;;;6.00;5.20;;;11.80;1.00;;;;;;5096195;28;20415;-41
2024/03/23 06:18:03;;;;;;;5.10;4.07;;;11.80;1.00;;;;;;5096377;28;20176;-42
2024/03/23 06:20:29;;;;;;;4.27;3.87;;;11.80;1.00;;;;;;5095150;28;20446;-42
2024/03/23 06:22:55;;;;;;;3.80;3.40;;;11.80;1.00;;;;;;5097113;28;20430;-41
2024/03/23 06:25:20;;;;;;;3.23;2.90;;;11.70;99.90;;;;;;5097707;28;20224;-42
2024/03/23 06:27:46;;;;;;;35.20;11.10;;;11.80;99.90;;;;;;5094998;28;20254;-44
2024/03/23 06:30:12;;;;;;;45.97;14.03;;;12.90;99.90;;;;;;5095830;28;20179;-44
2024/03/23 06:32:38;;;;;;;38.77;13.50;;;13.60;99.90;;;;;;5096325;28;20240;-41
2024/03/23 06:35:08;;;;;;;9.43;4.63;;;14.50;92.20;;;;;;5098508;28;20434;-43
2024/03/23 06:37:34;;;;;;;3.00;1.80;;;14.70;56.30;;;;;;5096845;28;20204;-42
2024/03/23 06:40:00;;;;;;;2.27;1.70;;;14.30;1.00;;;;;;5096255;28;20563;-42
2024/03/23 06:42:25;;;;;;;2.03;1.50;;;13.90;99.90;;;;;;5096375;28;20717;-43
2024/03/23 06:44:51;;;;;;;2.13;1.40;;;13.50;99.90;;;;;;5096954;28;20196;-41
2024/03/23 06:47:16;;;;;;;1.40;1.13;;;13.20;1.00;;;;;;5096680;28;20191;-44
2024/03/23 06:49:42;;;;;;;1.63;1.23;;;12.90;1.00;;;;;;5097567;28;20553;-41
2024/03/23 06:52:08;;;;;;;1.70;1.60;;;12.70;1.00;;;;;;5098105;28;20207;-42
2024/03/23 06:54:33;;;;;;;2.03;1.70;;;12.50;99.90;;;;;;5097285;28;20289;-42
2024/03/23 06:56:59;;;;;;;1.63;1.40;;;12.30;99.90;;;;;;5095861;28;20195;-42
2024/03/23 06:59:24;;;;;;;3.30;3.00;;;12.20;1.00;;;;;;5096485;28;20184;-43
2024/03/23 07:01:50;;;;;;;2.67;2.30;;;12.10;99.90;;;;;;5097236;28;20531;-42
2024/03/23 07:04:16;;;;;;;2.20;1.50;;;12.00;1.00;;;;;;5095684;28;20188;-41
2024/03/23 07:06:45;;;;;;;1.30;0.80;;;12.00;99.90;;;;;;5095612;28;20176;-41
2024/03/23 07:09:11;;;;;;;1.60;0.90;;;12.00;63.20;;;;;;5096645;28;20301;-43
2024/03/23 07:11:37;;;;;;;1.00;0.80;;;12.10;90.70;;;;;;5097032;28;20469;-42
2024/03/23 07:14:03;;;;;;;2.90;0.73;;;12.20;1.00;;;;;;5096338;28;20423;-41
2024/03/23 07:16:29;;;;;;;1.40;0.63;;;12.30;1.00;;;;;;5096586;28;20751;-41
2024/03/23 07:18:55;;;;;;;0.97;0.60;;;12.50;99.90;;;;;;5096622;28;20161;-43
2024/03/23 07:21:21;;;;;;;1.10;0.60;;;12.50;1.00;;;;;;5096504;28;20418;-41
2024/03/23 07:23:47;;;;;;;1.00;0.70;;;12.50;99.90;;;;;;5097061;28;20462;-44
2024/03/23 07:26:13;;;;;;;1.50;0.70;;;12.50;99.90;;;;;;5097468;28;20434;-41
2024/03/23 07:28:43;;;;;;;0.87;0.47;;;12.50;1.00;;;;;;5095359;28;20289;-40
2024/03/23 07:31:10;;;;;;;1.20;0.67;;;12.60;1.00;;;;;;5096714;28;20478;-41
2024/03/23 07:33:37;;;;;;;0.80;0.50;;;12.60;99.90;;;;;;5096909;28;20417;-41
2024/03/23 07:36:04;;;;;;;1.27;0.80;;;12.50;99.90;;;;;;5096554;28;20682;-42
2024/03/23 07:38:30;;;;;;;1.30;0.50;;;12.50;31.30;;;;;;5098431;28;20430;-42
2024/03/23 07:41:15;;;;;;;0.70;0.40;;;12.40;1.00;;;;;;5098987;28;20520;-41
2024/03/23 07:43:40;;;;;;;1.00;0.40;;;12.30;1.00;;;;;;5100513;28;20524;-41
2024/03/23 07:46:06;;;;;;;0.80;0.40;;;12.20;1.00;;;;;;5099701;28;20603;-42
2024/03/23 07:48:32;;;;;;;0.83;0.40;;;12.20;1.00;;;;;;5100041;28;20192;-42
2024/03/23 07:51:01;;;;;;;0.70;0.40;;;12.20;1.00;;;;;;5101007;28;20223;-42
2024/03/23 07:53:31;;;;;;;1.00;0.50;;;12.30;1.00;;;;;;5101538;28;20176;-40
2024/03/23 07:55:57;;;;;;;0.80;0.40;;;12.30;1.00;;;;;;5100706;28;20855;-41
2024/03/23 07:58:23;;;;;;;1.20;0.70;;;12.20;1.00;;;;;;5099500;28;20454;-43
2024/03/23 08:00:49;;;;;;;0.80;0.50;;;12.30;1.00;;;;;;5099044;28;20407;-43
2024/03/23 08:03:16;;;;;;;1.23;0.50;;;12.30;19.90;;;;;;5099739;28;20414;-42
2024/03/23 08:05:41;;;;;;;0.90;0.50;;;12.40;99.90;;;;;;5082087;28;20753;-41
2024/03/23 08:08:07;;;;;;;1.30;0.70;;;12.40;99.90;;;;;;5097277;28;20433;-42
2024/03/23 08:10:33;;;;;;;1.00;0.60;;;12.40;99.90;;;;;;5100036;28;20353;-43
2024/03/23 08:12:58;;;;;;;1.07;0.83;;;12.30;99.90;;;;;;5098513;28;20211;-42
2024/03/23 08:15:24;;;;;;;1.00;0.70;;;12.40;99.90;;;;;;5098811;28;20182;-41
2024/03/23 08:17:50;;;;;;;1.90;0.73;;;12.50;18.60;;;;;;5098019;28;20185;-42
2024/03/23 08:20:16;;;;;;;1.23;0.80;;;12.60;1.00;;;;;;5099600;28;20191;-41
2024/03/23 08:22:41;;;;;;;1.77;1.17;;;12.50;99.90;;;;;;5099181;28;20832;-40
2024/03/23 08:25:07;;;;;;;1.43;0.90;;;12.40;99.90;;;;;;5099533;28;20188;-40
2024/03/23 08:27:33;;;;;;;2.50;1.40;;;12.40;71.80;;;;;;5098769;28;20177;-41
2024/03/23 08:29:58;;;;;;;1.37;1.07;;;12.40;16.40;;;;;;5099068;28;20238;-41
2024/03/23 08:32:24;;;;;;;1.17;1.00;;;12.40;1.00;;;;;;5098421;28;20243;-42
2024/03/23 08:34:50;;;;;;;1.83;1.30;;;12.30;1.00;;;;;;5099681;28;20420;-42
2024/03/23 08:37:15;;;;;;;1.80;0.93;;;12.30;1.00;;;;;;5099772;28;20204;-41
2024/03/23 08:39:43;;;;;;;1.67;1.20;;;12.40;1.00;;;;;;5099391;28;20180;-41
2024/03/23 08:42:09;;;;;;;1.90;1.43;;;12.40;1.00;;;;;;5100404;28;20185;-41
2024/03/23 08:44:35;;;;;;;1.70;1.17;;;12.50;1.00;;;;;;5098946;28;20582;-42
2024/03/23 08:47:03;;;;;;;2.30;1.10;;;12.50;1.00;;;;;;5100126;28;20181;-43
2024/03/23 08:49:28;;;;;;;1.37;1.00;;;12.60;1.00;;;;;;5079463;28;20470;-41
2024/03/23 08:51:54;;;;;;;1.70;0.80;;;12.70;1.00;;;;;;5096770;28;20528;-41
2024/03/23 08:54:22;;;;;;;2.23;1.20;;;12.80;99.90;;;;;;5062683;28;20181;-41
2024/03/23 08:56:47;;;;;;;3.43;1.40;;;12.90;99.90;;;;;;5077643;28;20188;-42
2024/03/23 08:59:15;;;;;;;1.33;0.97;;;12.90;99.90;;;;;;5077929;28;20427;-42
2024/03/23 09:01:40;;;;;;;6.83;1.77;;;12.80;99.90;;;;;;5076600;28;20207;-41
2024/03/23 09:04:06;;;;;;;1.97;1.53;;;12.70;99.90;;;;;;5078384;28;20804;-42
2024/03/23 09:06:31;;;;;;;3.03;1.87;;;12.60;99.90;;;;;;5075828;28;20180;-41
2024/03/23 09:08:57;;;;;;;3.37;2.33;;;12.50;99.90;;;;;;5077412;28;20195;-43
2024/03/23 09:11:22;;;;;;;2.97;2.63;;;12.30;99.90;;;;;;5060232;28;20216;-41
2024/03/23 09:13:49;;;;;;;4.00;3.57;;;12.20;99.90;;;;;;5077476;28;20181;-42
2024/03/23 09:16:30;;;;;;;5.00;3.83;;;12.30;99.90;;;;;;5077460;28;20247;-44
2024/03/23 09:18:55;;;;;;;7.07;6.10;;;12.50;99.90;;;;;;5076915;28;20447;-41
2024/03/23 09:21:21;;;;;;;5.87;4.60;;;13.10;99.90;;;;;;5077187;28;20181;-39
2024/03/23 09:23:47;;;;;;;5.10;3.87;;;13.80;99.90;;;;;;5076768;28;20193;-43
2024/03/23 09:26:12;;;;;;;6.00;3.80;;;14.30;99.40;;;;;;5075894;28;20257;-43
2024/03/23 09:28:38;;;;;;;4.53;2.90;;;14.70;47.30;;;;;;5077017;28;20177;-41
2024/03/23 09:31:05;;;;;;;6.10;3.10;;;15.40;16.10;;;;;;5077685;28;20486;-43
2024/03/23 09:33:31;;;;;;;6.33;3.60;;;16.00;1.00;;;;;;5078700;28;20419;-45
2024/03/23 09:35:56;;;;;;;6.80;4.67;;;16.20;1.00;;;;;;5078042;28;20427;-42
2024/03/23 09:38:25;;;;;;;3.30;2.37;;;16.00;1.00;;;;;;5078435;28;20180;-42
2024/03/23 09:40:53;;;;;;;5.97;3.40;;;15.80;1.00;;;;;;5078595;28;20292;-43
2024/03/23 09:43:19;;;;;;;4.47;3.10;;;15.70;1.00;;;;;;5077227;28;20436;-41
2024/03/23 09:45:45;;;;;;;5.53;3.50;;;15.60;1.00;;;;;;5078424;28;20412;-42
2024/03/23 09:48:11;;;;;;;4.13;3.07;;;15.40;1.00;;;;;;5077628;28;20442;-38
2024/03/23 09:50:41;;;;;;;5.40;3.00;;;15.30;1.00;;;;;;5077258;28;20423;-40
2024/03/23 09:53:07;;;;;;;5.50;3.50;;;15.20;1.00;;;;;;5078012;28;20430;-40
2024/03/23 09:55:33;;;;;;;4.93;3.07;;;15.10;1.00;;;;;;5076371;28;20462;-42
2024/03/23 09:57:59;;;;;;;5.70;3.23;;;15.00;1.00;;;;;;5059811;28;20407;-42
2024/03/23 10:00:26;;;;;;;4.43;3.33;;;15.10;1.00;;;;;;5060714;28;20408;-40
2024/03/23 10:02:51;;;;;;;4.80;3.37;;;15.00;1.00;;;;;;5077767;28;20423;-41
2024/03/23 10:05:23;;;;;;;9.63;2.73;;;15.20;1.00;;;;;;5077707;28;20423;-41
2024/03/23 10:07:50;;;;;;;4.83;3.67;;;15.60;1.00;;;;;;5077211;28;20200;-45
2024/03/23 10:10:16;;;;;;;6.27;3.43;;;16.00;1.00;;;;;;5075758;28;20463;-41
2024/03/23 10:12:52;;;;;;;3.83;2.80;;;16.20;1.00;;;;;;5075811;28;20478;-41
2024/03/23 10:15:20;;;;;;;8.47;3.67;;;16.10;1.00;;;;;;5077580;28;20426;-42
2024/03/23 10:17:46;;;;;;;6.37;3.43;;;15.80;1.00;;;;;;5060898;28;20423;-42
2024/03/23 10:20:13;;;;;;;4.13;2.97;;;15.50;1.00;;;;;;5078577;28;20518;-41
2024/03/23 10:22:39;;;;;;;5.03;3.00;;;15.40;1.00;;;;;;5078526;28;20435;-42
2024/03/23 10:25:09;;;;;;;6.80;3.30;;;15.40;1.00;;;;;;5077743;28;20513;-42
2024/03/23 10:27:34;;;;;;;7.90;4.00;;;15.30;1.00;;;;;;5077094;28;20892;-42
2024/03/23 10:30:09;;;;;;;6.80;3.00;;;15.20;1.00;;;;;;5058866;28;20442;-42
2024/03/23 10:32:35;;;;;;;9.67;4.50;;;15.00;1.00;;;;;;5040384;28;20220;-42
2024/03/23 10:35:21;;;;;;;4.90;3.10;;;14.90;1.00;;;;;;5058164;28;20423;-42
2024/03/23 10:37:49;;;;;;;6.93;3.77;;;15.00;1.00;;;;;;5077696;28;20169;-42
2024/03/23 10:40:15;;;;;;;4.47;3.47;;;15.00;1.00;;;;;;5076320;28;20492;-41
2024/03/23 10:42:40;;;;;;;5.80;3.10;;;15.10;1.00;;;;;;5075528;28;20415;-42
2024/03/23 10:45:07;;;;;;;4.73;3.20;;;15.10;1.00;;;;;;5074615;28;20529;-41
2024/03/23 10:47:35;;;;;;;5.70;3.60;;;14.80;1.00;;;;;;5074340;28;20189;-43
2024/03/23 10:50:01;;;;;;;4.00;3.17;;;14.40;1.00;;;;;;5039201;28;20512;-43
2024/03/23 10:52:27;;;;;;;4.67;2.20;;;13.90;1.00;;;;;;5074717;28;20475;-43
2024/03/23 10:54:53;;;;;;;3.80;1.70;;;13.30;1.00;;;;;;5074360;28;20169;-42
2024/03/23 10:57:23;;;;;;;2.03;1.40;;;12.90;1.00;;;;;;5057980;28;20407;-44
2024/03/23 10:59:49;;;;;;;4.00;1.90;;;12.60;1.00;;;;;;5056333;28;20593;-42
2024/03/23 11:02:21;;;;;;;3.00;1.97;;;12.30;1.00;;;;;;5057299;28;20455;-41
2024/03/23 11:04:48;;;;;;;2.07;1.30;;;12.10;1.00;;;;;;5075486;28;20177;-42
2024/03/23 11:07:33;;;;;;;3.20;1.50;;;12.10;1.00;;;;;;5058144;28;20651;-41
2024/03/23 11:09:59;;;;;;;4.13;1.80;;;12.20;1.00;;;;;;5076592;28;20523;-41
2024/03/23 11:12:31;;;;;;;2.40;1.80;;;12.30;1.00;;;;;;5077702;28;20451;-43
2024/03/23 11:15:15;;;;;;;5.03;2.10;;;12.50;1.00;;;;;;5081117;28;20730;-42
2024/03/23 11:17:41;;;;;;;5.33;2.57;;;13.10;1.00;;;;;;5080787;28;20752;-41
2024/03/23 11:20:09;;;;;;;3.40;1.83;;;13.70;1.00;;;;;;5080585;28;20423;-41
2024/03/23 11:22:37;;;;;;;4.30;1.83;;;14.30;1.00;;;;;;5079088;28;20173;-41
2024/03/23 11:25:15;;;;;;;2.80;1.53;;;14.70;1.00;;;;;;5080084;28;20411;-41
2024/03/23 11:27:41;;;;;;;4.50;2.00;;;15.00;1.00;;;;;;5079496;28;20469;-43
2024/03/23 11:30:20;;;;;;;4.07;1.97;;;15.10;1.00;;;;;;5080732;28;20455;-43
2024/03/23 11:32:46;;;;;;;3.77;2.00;;;15.30;1.00;;;;;;5062643;28;20293;-40
2024/03/23 11:35:29;;;;;;;3.40;1.80;;;15.70;1.00;;;;;;5080151;28;20444;-42
2024/03/23 11:38:13;;;;;;;2.63;1.60;;;16.20;1.00;;;;;;5062607;28;20466;-41
2024/03/23 11:40:43;;;;;;;2.60;1.30;;;16.50;1.00;;;;;;5060935;28;20423;-41
2024/03/23 11:43:13;;;;;;;3.73;1.67;;;16.70;1.00;;;;;;5061320;28;20446;-41
2024/03/23 11:45:47;;;;;;;4.07;1.70;;;16.60;1.00;;;;;;5061591;28;20412;-43
2024/03/23 11:48:18;;;;;;;3.30;1.67;;;16.40;1.00;;;;;;5078089;28;20430;-41
2024/03/23 11:50:46;;;;;;;2.27;1.27;;;16.20;1.00;;;;;;5079936;28;20457;-41
2024/03/23 11:53:11;;;;;;;5.53;1.43;;;16.00;1.00;;;;;;5079793;28;20435;-41
2024/03/23 11:55:45;;;;;;;3.07;1.70;;;15.80;1.00;;;;;;5078434;28;20777;-41
2024/03/23 11:58:11;;;;;;;3.10;1.20;;;15.70;1.00;;;;;;5059591;28;20446;-41
2024/03/23 12:00:37;;;;;;;6.50;1.80;;;15.70;1.00;;;;;;5059904;28;20419;-41
2024/03/23 12:03:03;;;;;;;4.00;1.53;;;15.80;1.00;;;;;;5078623;28;20445;-42
2024/03/23 12:05:29;;;;;;;4.30;1.53;;;16.00;1.00;;;;;;5078867;28;20246;-42
2024/03/23 12:07:55;;;;;;;3.80;1.97;;;16.10;1.00;;;;;;5077271;28;20415;-40
2024/03/23 12:10:21;;;;;;;3.83;1.70;;;16.60;1.00;;;;;;5076967;28;20506;-42
2024/03/23 12:12:59;;;;;;;5.37;1.47;;;16.70;1.00;;;;;;5075429;28;20447;-41
2024/03/23 12:15:25;;;;;;;2.50;1.63;;;16.70;1.00;;;;;;5060591;28;20451;-43
2024/03/23 12:17:50;;;;;;;5.07;2.00;;;16.30;1.00;;;;;;5076536;28;20419;-42
2024/03/23 12:20:16;;;;;;;4.87;2.20;;;15.90;1.00;;;;;;5043805;28;20271;-42
2024/03/23 12:22:42;;;;;;;4.23;2.23;;;15.60;1.00;;;;;;5077488;28;20273;-41
2024/03/23 12:25:07;;;;;;;3.90;2.10;;;15.30;1.00;;;;;;5044384;28;20185;-40
2024/03/23 12:27:34;;;;;;;6.40;2.50;;;15.10;1.00;;;;;;5079036;28;20173;-42
2024/03/23 12:30:02;;;;;;;5.93;2.33;;;14.80;1.00;;;;;;5078224;28;20773;-41
2024/03/23 12:32:27;;;;;;;6.63;2.53;;;14.50;1.00;;;;;;5077857;28;20467;-40
2024/03/23 12:34:53;;;;;;;5.03;2.30;;;14.30;1.00;;;;;;5060917;28;20489;-40
2024/03/23 12:37:19;;;;;;;5.33;2.70;;;14.10;1.00;;;;;;5061019;28;20195;-40
2024/03/23 12:39:45;;;;;;;4.33;2.33;;;14.00;1.00;;;;;;5061219;28;20165;-40
2024/03/23 12:42:11;;;;;;;4.50;2.80;;;14.40;1.00;;;;;;5060736;28;20728;-40
2024/03/23 12:44:36;;;;;;;5.40;2.67;;;14.60;1.00;;;;;;5059416;28;20511;-40
2024/03/23 12:47:02;;;;;;;4.17;2.47;;;14.60;1.00;;;;;;5077149;28;20169;-41
2024/03/23 12:49:28;;;;;;;4.47;2.67;;;14.40;1.00;;;;;;5078554;28;20192;-42
2024/03/23 12:51:55;;;;;;;5.63;2.90;;;14.30;1.00;;;;;;5078882;28;20221;-41
2024/03/23 12:54:21;;;;;;;5.30;2.80;;;14.10;1.00;;;;;;5077444;28;20438;-41